Time;durP1;ratioP1;P1;durP2;ratioP2;P2;SDS_P1;SDS_P2;PMS_P1;PMS_P2;Temp;Humidity;BMP_temperature;BMP_pressure;BME280_temperature;BME280_humidity;BME280_pressure;Samples;Min_cycle;Max_cycle;Signal;HPM_P1;HPM_P2
2022/12/10 00:01:04;;;;;;;41.63;25.52;;;;;;;;;;5033698;28;20049;-90
2022/12/10 00:03:32;;;;;;;41.35;26.13;;;;;;;;;;5033422;28;20065;-90
2022/12/10 00:06:01;;;;;;;48.80;27.23;;;;;;;;;;5034397;28;20128;-90
2022/12/10 00:08:29;;;;;;;43.38;26.30;;;;;;;;;;5034099;28;20060;-89
2022/12/10 00:10:56;;;;;;;50.72;27.67;;;;;;;;;;5034045;28;20068;-90
2022/12/10 00:13:24;;;;;;;44.53;27.88;;;;;;;;;;5034407;28;20053;-90
2022/12/10 00:15:51;;;;;;;42.47;26.20;;;;;;;;;;5034189;28;20060;-90
2022/12/10 00:18:18;;;;;;;46.20;25.85;;;;;;;;;;5032799;28;20056;-90
2022/12/10 00:20:46;;;;;;;41.22;26.35;;;;;;;;;;5033427;28;20049;-90
2022/12/10 00:23:13;;;;;;;40.88;26.02;;;;;;;;;;5032706;28;20049;-90
2022/12/10 00:25:47;;;;;;;42.05;25.77;;;;;;;;;;5033142;28;20056;-90
2022/12/10 00:28:14;;;;;;;36.08;23.48;;;;;;;;;;5033123;28;20045;-90
2022/12/10 00:30:42;;;;;;;43.08;25.75;;;;;;;;;;5033131;28;20059;-90
2022/12/10 00:33:09;;;;;;;44.75;26.73;;;;;;;;;;5033177;28;20053;-90
2022/12/10 00:35:37;;;;;;;42.10;25.50;;;;;;;;;;5033750;28;20069;-90
2022/12/10 00:38:04;;;;;;;47.00;27.83;;;;;;;;;;5033775;28;20493;-90
2022/12/10 00:40:31;;;;;;;43.95;25.90;;;;;;;;;;5032739;28;20045;-90
2022/12/10 00:42:58;;;;;;;45.50;27.85;;;;;;;;;;5033010;28;20053;-90
2022/12/10 00:45:25;;;;;;;44.53;28.08;;;;;;;;;;5032725;28;20379;-90
2022/12/10 00:47:52;;;;;;;40.85;26.05;;;;;;;;;;5032905;28;20049;-89
2022/12/10 00:50:20;;;;;;;41.47;26.05;;;;;;;;;;5032804;28;20490;-90
2022/12/10 00:52:47;;;;;;;40.70;25.92;;;;;;;;;;5032772;28;20425;-90
2022/12/10 00:55:14;;;;;;;42.83;24.35;;;;;;;;;;5033634;28;20049;-89
2022/12/10 00:57:42;;;;;;;43.95;23.73;;;;;;;;;;5032273;28;20057;-90
2022/12/10 01:00:09;;;;;;;42.90;24.40;;;;;;;;;;5031947;28;20060;-89
2022/12/10 01:02:37;;;;;;;36.78;23.65;;;;;;;;;;5032883;28;20088;-90
2022/12/10 01:05:06;;;;;;;37.63;23.15;;;;;;;;;;5032473;28;20089;-89
2022/12/10 01:07:34;;;;;;;38.25;23.48;;;;;;;;;;5033448;28;20490;-90
2022/12/10 01:10:02;;;;;;;37.13;22.83;;;;;;;;;;5033811;28;20512;-90
2022/12/10 01:12:29;;;;;;;36.42;23.55;;;;;;;;;;5033317;28;20060;-89
2022/12/10 01:14:57;;;;;;;34.30;21.70;;;;;;;;;;5032411;28;20493;-89
2022/12/10 01:17:24;;;;;;;32.83;21.38;;;;;;;;;;5032986;28;20049;-90
2022/12/10 01:19:51;;;;;;;33.83;21.63;;;;;;;;;;5033563;28;20052;-90
2022/12/10 01:22:18;;;;;;;37.60;22.13;;;;;;;;;;5032443;28;20055;-89
2022/12/10 01:24:45;;;;;;;35.13;21.20;;;;;;;;;;5032141;28;20061;-89
2022/12/10 01:27:13;;;;;;;38.47;22.70;;;;;;;;;;5033248;28;20050;-90
2022/12/10 01:29:40;;;;;;;39.00;22.85;;;;;;;;;;5033473;28;20064;-90
2022/12/10 01:32:07;;;;;;;36.00;22.88;;;;;;;;;;5034929;28;20053;-90
2022/12/10 01:34:34;;;;;;;33.15;21.48;;;;;;;;;;5036245;28;20110;-90
2022/12/10 01:37:02;;;;;;;37.35;23.02;;;;;;;;;;5036043;28;20056;-89
2022/12/10 01:39:29;;;;;;;36.65;22.55;;;;;;;;;;5036172;28;20049;-90
2022/12/10 01:42:00;;;;;;;36.05;21.92;;;;;;;;;;5036113;28;20049;-90
2022/12/10 01:44:27;;;;;;;48.80;29.83;;;;;;;;;;5035963;28;20053;-90
2022/12/10 01:46:58;;;;;;;62.53;34.65;;;;;;;;;;5036017;28;20120;-89
2022/12/10 01:49:27;;;;;;;51.47;28.60;;;;;;;;;;5035851;28;20056;-90
2022/12/10 01:51:56;;;;;;;46.20;27.35;;;;;;;;;;5036657;28;20049;-90
2022/12/10 01:54:25;;;;;;;36.85;24.58;;;;;;;;;;5036663;28;20482;-90
2022/12/10 01:57:00;;;;;;;36.33;23.33;;;;;;;;;;5036067;28;20049;-90
2022/12/10 01:59:28;;;;;;;39.17;23.13;;;;;;;;;;5035979;28;20498;-90
2022/12/10 02:02:10;;;;;;;34.85;22.20;;;;;;;;;;5035621;28;20410;-90
2022/12/10 02:04:45;;;;;;;35.45;22.15;;;;;;;;;;5036741;28;20084;-90
2022/12/10 02:07:33;;;;;;;38.53;22.38;;;;;;;;;;5036796;28;20049;-90
2022/12/10 02:10:03;;;;;;;32.60;21.10;;;;;;;;;;5036597;28;20049;-90
2022/12/10 02:12:47;;;;;;;35.47;20.52;;;;;;;;;;5035859;28;20049;-90
2022/12/10 02:15:19;;;;;;;33.63;21.77;;;;;;;;;;5036488;28;20055;-90
2022/12/10 02:17:49;;;;;;;37.03;22.20;;;;;;;;;;5036363;28;20049;-89
2022/12/10 02:20:25;;;;;;;34.35;21.65;;;;;;;;;;5036825;28;20056;-90
2022/12/10 02:22:54;;;;;;;33.45;21.95;;;;;;;;;;5035566;28;20152;-90
2022/12/10 02:25:24;;;;;;;35.72;21.65;;;;;;;;;;5036298;28;20053;-90
2022/12/10 02:27:54;;;;;;;40.75;22.00;;;;;;;;;;5035549;28;20049;-90
2022/12/10 02:30:21;;;;;;;34.10;22.00;;;;;;;;;;5035199;28;20064;-90
2022/12/10 02:32:50;;;;;;;34.63;22.17;;;;;;;;;;5035229;28;20052;-90
2022/12/10 02:35:21;;;;;;;42.30;26.67;;;;;;;;;;5035168;28;20060;-90
2022/12/10 02:37:50;;;;;;;36.92;22.88;;;;;;;;;;5034980;28;20053;-90
2022/12/10 02:40:19;;;;;;;35.17;21.38;;;;;;;;;;5035062;28;20053;-90
2022/12/10 02:42:49;;;;;;;35.55;22.23;;;;;;;;;;5035474;28;20060;-90
2022/12/10 02:45:16;;;;;;;41.30;22.55;;;;;;;;;;5035139;28;20046;-90
2022/12/10 02:47:44;;;;;;;31.08;21.27;;;;;;;;;;5035102;28;20064;-90
2022/12/10 02:50:12;;;;;;;33.22;22.08;;;;;;;;;;5034923;28;20045;-89
2022/12/10 02:52:39;;;;;;;36.08;23.15;;;;;;;;;;5034791;28;20049;-90
2022/12/10 02:55:10;;;;;;;31.08;20.52;;;;;;;;;;5035041;28;20149;-90
2022/12/10 02:57:41;;;;;;;35.55;23.45;;;;;;;;;;5034800;28;20060;-90
2022/12/10 03:00:18;;;;;;;40.55;23.70;;;;;;;;;;5034652;28;20045;-90
2022/12/10 03:02:46;;;;;;;37.28;23.35;;;;;;;;;;5034843;28;20053;-90
2022/12/10 03:05:20;;;;;;;39.58;22.98;;;;;;;;;;5034649;28;20516;-90
2022/12/10 03:07:59;;;;;;;36.70;22.08;;;;;;;;;;5035564;28;20045;-90
2022/12/10 03:10:29;;;;;;;34.75;21.85;;;;;;;;;;5035913;28;20132;-90
2022/12/10 03:13:01;;;;;;;33.83;22.45;;;;;;;;;;5035849;28;20049;-90
2022/12/10 03:15:30;;;;;;;34.65;22.40;;;;;;;;;;5034486;28;20072;-90
2022/12/10 03:17:59;;;;;;;42.78;25.17;;;;;;;;;;5034425;28;20611;-90
2022/12/10 03:20:27;;;;;;;40.65;24.80;;;;;;;;;;5034096;28;20052;-90
2022/12/10 03:22:55;;;;;;;37.63;22.13;;;;;;;;;;5034218;28;20413;-89
2022/12/10 03:25:24;;;;;;;41.42;23.17;;;;;;;;;;5034364;28;20045;-90
2022/12/10 03:27:52;;;;;;;39.30;23.42;;;;;;;;;;5034254;28;20050;-89
2022/12/10 03:30:19;;;;;;;34.75;22.70;;;;;;;;;;5035296;28;20045;-88
2022/12/10 03:32:47;;;;;;;36.10;21.90;;;;;;;;;;5033882;28;20056;-90
2022/12/10 03:35:15;;;;;;;38.05;21.45;;;;;;;;;;5033924;28;20049;-90
2022/12/10 03:37:42;;;;;;;37.58;21.83;;;;;;;;;;5034034;28;20045;-90
2022/12/10 03:40:12;;;;;;;33.95;21.48;;;;;;;;;;5034859;28;20049;-90
2022/12/10 03:42:39;;;;;;;37.85;23.17;;;;;;;;;;5034744;28;20045;-90
2022/12/10 03:45:07;;;;;;;37.67;22.77;;;;;;;;;;5034533;28;20505;-90
2022/12/10 03:47:34;;;;;;;34.75;21.80;;;;;;;;;;5033606;28;20049;-90
2022/12/10 03:50:02;;;;;;;38.58;23.65;;;;;;;;;;5033674;28;20055;-90
2022/12/10 03:52:29;;;;;;;42.33;24.38;;;;;;;;;;5034573;28;20056;-89
2022/12/10 03:54:56;;;;;;;34.42;23.13;;;;;;;;;;5033900;28;20061;-90
2022/12/10 03:57:23;;;;;;;37.88;23.45;;;;;;;;;;5033583;28;20136;-90
2022/12/10 03:59:51;;;;;;;38.47;23.13;;;;;;;;;;5034677;28;20140;-90
2022/12/10 04:02:18;;;;;;;40.13;24.50;;;;;;;;;;5034396;28;20056;-90
2022/12/10 04:04:45;;;;;;;40.45;24.35;;;;;;;;;;5033634;28;20049;-90
2022/12/10 04:07:13;;;;;;;36.72;23.90;;;;;;;;;;5033717;28;20136;-90
2022/12/10 04:09:40;;;;;;;39.03;24.80;;;;;;;;;;5033480;28;20056;-90
2022/12/10 04:12:07;;;;;;;42.28;26.60;;;;;;;;;;5033255;28;20057;-90
2022/12/10 04:17:21;;;;;;;45.35;26.67;;;;;;;;;;5034221;28;20477;-90
2022/12/10 04:19:48;;;;;;;43.05;26.90;;;;;;;;;;5033155;28;20057;-90
2022/12/10 04:27:47;;;;;;;47.13;28.50;;;;;;;;;;5033911;28;20061;-90
2022/12/10 04:30:14;;;;;;;46.03;26.90;;;;;;;;;;5034036;28;20050;-90
2022/12/10 04:32:42;;;;;;;47.40;28.52;;;;;;;;;;5033023;28;20057;-90
2022/12/10 04:35:09;;;;;;;56.80;29.98;;;;;;;;;;5032717;28;20049;-90
2022/12/10 04:37:36;;;;;;;47.65;26.67;;;;;;;;;;5032801;28;20049;-90
2022/12/10 04:40:04;;;;;;;50.50;29.15;;;;;;;;;;5033915;28;20053;-90
2022/12/10 04:42:32;;;;;;;47.35;27.23;;;;;;;;;;5032701;28;20067;-90
2022/12/10 04:44:59;;;;;;;42.00;25.00;;;;;;;;;;5032710;28;20440;-90
2022/12/10 04:47:26;;;;;;;45.90;26.25;;;;;;;;;;5032754;28;20192;-90
2022/12/10 04:49:54;;;;;;;46.13;27.05;;;;;;;;;;5033775;28;20072;-90
2022/12/10 04:52:21;;;;;;;43.78;25.35;;;;;;;;;;5033723;28;20064;-90
2022/12/10 04:54:48;;;;;;;44.53;25.08;;;;;;;;;;5032735;28;20501;-90
2022/12/10 04:57:15;;;;;;;42.83;24.23;;;;;;;;;;5033442;28;20045;-90
2022/12/10 04:59:43;;;;;;;39.88;22.52;;;;;;;;;;5033443;28;20068;-90
2022/12/10 05:02:10;;;;;;;44.88;22.23;;;;;;;;;;5032812;28;20046;-90
2022/12/10 05:04:37;;;;;;;39.15;20.92;;;;;;;;;;5032415;28;20053;-90
2022/12/10 05:07:05;;;;;;;45.70;20.55;;;;;;;;;;5037480;28;20048;-90
2022/12/10 05:09:32;;;;;;;51.10;22.50;;;;;;;;;;5040058;28;20053;-90
2022/12/10 05:11:59;;;;;;;55.13;23.52;;;;;;;;;;5039201;28;20064;-90
2022/12/10 05:14:26;;;;;;;59.25;25.13;;;;;;;;;;5039778;28;20053;-90
2022/12/10 05:16:53;;;;;;;54.25;22.85;;;;;;;;;;5038927;28;20053;-90
2022/12/10 05:19:22;;;;;;;54.20;22.88;;;;;;;;;;5038788;28;20045;-90
2022/12/10 05:24:35;;;;;;;46.47;21.73;;;;;;;;;;5039583;28;20500;-90
2022/12/10 05:27:03;;;;;;;51.97;23.42;;;;;;;;;;5038984;28;20049;-90
2022/12/10 05:29:30;;;;;;;57.45;24.35;;;;;;;;;;5039717;28;20053;-90
2022/12/10 05:31:57;;;;;;;52.78;23.45;;;;;;;;;;5040084;28;20133;-91
2022/12/10 05:34:24;;;;;;;56.30;22.52;;;;;;;;;;5039067;28;20045;-90
2022/12/10 05:36:52;;;;;;;51.03;23.42;;;;;;;;;;5039177;28;20383;-90
2022/12/10 05:39:19;;;;;;;58.00;24.15;;;;;;;;;;5038224;28;20045;-90
2022/12/10 05:41:46;;;;;;;52.88;22.50;;;;;;;;;;5039072;28;20512;-90
2022/12/10 05:44:13;;;;;;;57.55;23.70;;;;;;;;;;5038643;28;20057;-90
2022/12/10 05:46:41;;;;;;;49.05;21.35;;;;;;;;;;5039970;28;20076;-90
2022/12/10 05:49:08;;;;;;;48.30;20.35;;;;;;;;;;5039909;28;20550;-91
2022/12/10 05:51:36;;;;;;;49.13;21.58;;;;;;;;;;5039100;28;20372;-90
2022/12/10 05:54:05;;;;;;;44.28;19.88;;;;;;;;;;5038611;28;20054;-90
2022/12/10 05:56:32;;;;;;;48.90;20.63;;;;;;;;;;5039669;28;20505;-90
2022/12/10 05:59:01;;;;;;;50.45;21.70;;;;;;;;;;5039783;28;20056;-91
2022/12/10 06:01:35;;;;;;;47.15;20.88;;;;;;;;;;5038760;28;20132;-90
2022/12/10 06:04:04;;;;;;;56.78;25.20;;;;;;;;;;5038728;28;20413;-90
2022/12/10 06:06:33;;;;;;;51.45;22.55;;;;;;;;;;5038699;28;20053;-90
2022/12/10 06:09:00;;;;;;;48.90;20.25;;;;;;;;;;5038862;28;20057;-90
2022/12/10 06:11:28;;;;;;;45.88;17.63;;;;;;;;;;5039692;28;20049;-90
2022/12/10 06:13:56;;;;;;;38.72;15.85;;;;;;;;;;5038785;28;20046;-90
2022/12/10 06:16:24;;;;;;;33.38;15.73;;;;;;;;;;5039319;28;20064;-90
2022/12/10 06:18:52;;;;;;;28.52;14.02;;;;;;;;;;5035968;28;20050;-90
2022/12/10 06:21:19;;;;;;;31.65;13.60;;;;;;;;;;5036185;28;20045;-90
2022/12/10 06:23:47;;;;;;;27.15;11.95;;;;;;;;;;5035029;28;20059;-90
2022/12/10 06:26:16;;;;;;;26.98;12.18;;;;;;;;;;5035341;28;20049;-90
2022/12/10 06:28:46;;;;;;;28.70;15.30;;;;;;;;;;5035436;28;20453;-90
2022/12/10 06:31:13;;;;;;;27.65;14.63;;;;;;;;;;5034965;28;20517;-90
2022/12/10 06:33:41;;;;;;;28.95;14.30;;;;;;;;;;5036122;28;20132;-90
2022/12/10 06:36:08;;;;;;;29.73;14.07;;;;;;;;;;5036008;28;20421;-90
2022/12/10 06:38:36;;;;;;;33.45;16.38;;;;;;;;;;5034858;28;20053;-90
2022/12/10 06:41:08;;;;;;;47.33;20.33;;;;;;;;;;5035875;28;20060;-91
2022/12/10 06:43:35;;;;;;;49.45;21.98;;;;;;;;;;5035883;28;20076;-91
2022/12/10 06:46:06;;;;;;;52.33;23.23;;;;;;;;;;5036008;28;20052;-90
2022/12/10 06:48:34;;;;;;;58.60;23.88;;;;;;;;;;5035643;28;20144;-91
2022/12/10 06:51:02;;;;;;;58.15;25.23;;;;;;;;;;5034787;28;20132;-91
2022/12/10 06:53:29;;;;;;;52.30;24.48;;;;;;;;;;5035597;28;20045;-91
2022/12/10 06:55:58;;;;;;;59.45;25.92;;;;;;;;;;5036089;28;20513;-90
2022/12/10 06:58:26;;;;;;;65.45;28.73;;;;;;;;;;5034406;28;20045;-90
2022/12/10 07:00:53;;;;;;;59.78;26.80;;;;;;;;;;5034508;28;20136;-91
2022/12/10 07:03:21;;;;;;;59.53;25.33;;;;;;;;;;5035028;28;20609;-91
2022/12/10 07:05:48;;;;;;;70.43;36.72;;;;;;;;;;5035560;28;20056;-91
2022/12/10 07:08:17;;;;;;;68.78;28.85;;;;;;;;;;5034605;28;20056;-91
2022/12/10 07:10:44;;;;;;;80.13;39.58;;;;;;;;;;5034349;28;20056;-91
2022/12/10 07:13:12;;;;;;;60.25;28.60;;;;;;;;;;5034567;28;20049;-91
2022/12/10 07:15:39;;;;;;;67.43;31.30;;;;;;;;;;5035198;28;20052;-91
2022/12/10 07:18:06;;;;;;;63.97;30.10;;;;;;;;;;5034658;28;20053;-91
2022/12/10 07:20:33;;;;;;;63.60;30.63;;;;;;;;;;5034033;28;20077;-91
2022/12/10 07:23:01;;;;;;;65.32;28.25;;;;;;;;;;5034040;28;20064;-91
2022/12/10 07:25:28;;;;;;;62.78;27.52;;;;;;;;;;5034170;28;20115;-90
2022/12/10 07:27:55;;;;;;;52.78;25.10;;;;;;;;;;5035497;28;20455;-92
2022/12/10 07:30:24;;;;;;;53.05;25.27;;;;;;;;;;5032683;28;20053;-92
2022/12/10 07:32:51;;;;;;;49.83;26.25;;;;;;;;;;5034293;28;20052;-92
2022/12/10 07:35:18;;;;;;;51.92;25.13;;;;;;;;;;5034029;28;20045;-92
2022/12/10 07:37:45;;;;;;;51.13;26.13;;;;;;;;;;5034775;28;20080;-92
2022/12/10 07:40:12;;;;;;;52.38;25.98;;;;;;;;;;5035094;28;20049;-92
2022/12/10 07:42:40;;;;;;;48.83;24.50;;;;;;;;;;5034728;28;20072;-92
2022/12/10 07:45:08;;;;;;;47.92;25.08;;;;;;;;;;5033881;28;20049;-92
2022/12/10 07:47:36;;;;;;;47.92;22.67;;;;;;;;;;5033846;28;20053;-92
2022/12/10 07:50:03;;;;;;;47.63;24.45;;;;;;;;;;5034145;28;20109;-92
2022/12/10 07:52:30;;;;;;;41.53;24.08;;;;;;;;;;5034375;28;20413;-93
2022/12/10 07:54:58;;;;;;;44.08;25.92;;;;;;;;;;5033071;28;20041;-92
2022/12/10 07:57:25;;;;;;;45.17;24.77;;;;;;;;;;5033563;28;20128;-92
2022/12/10 07:59:52;;;;;;;39.70;21.77;;;;;;;;;;5033567;28;20060;-92
2022/12/10 08:02:19;;;;;;;45.83;23.00;;;;;;;;;;5034438;28;20049;-92
2022/12/10 08:04:46;;;;;;;43.03;22.77;;;;;;;;;;5033657;28;20056;-93
2022/12/10 08:07:14;;;;;;;40.45;21.23;;;;;;;;;;5033708;28;20049;-93
2022/12/10 08:09:41;;;;;;;42.88;21.88;;;;;;;;;;5033807;28;20481;-92
2022/12/10 08:12:09;;;;;;;46.20;24.00;;;;;;;;;;5033376;28;20060;-92
2022/12/10 08:14:36;;;;;;;41.65;22.73;;;;;;;;;;5033728;28;20061;-92
2022/12/10 08:17:03;;;;;;;43.50;22.80;;;;;;;;;;5033199;28;20053;-93
2022/12/10 08:19:30;;;;;;;44.25;25.52;;;;;;;;;;5036389;28;20046;-93
2022/12/10 08:21:58;;;;;;;46.90;25.73;;;;;;;;;;5033492;28;20087;-93
2022/12/10 08:24:25;;;;;;;44.30;23.60;;;;;;;;;;5033245;28;20520;-93
2022/12/10 08:26:52;;;;;;;45.95;23.15;;;;;;;;;;5033258;28;20052;-93
2022/12/10 08:29:20;;;;;;;48.70;25.80;;;;;;;;;;5032454;28;20065;-93
2022/12/10 08:31:47;;;;;;;42.08;22.58;;;;;;;;;;5034032;28;20041;-93
2022/12/10 08:34:17;;;;;;;43.90;23.15;;;;;;;;;;5033035;28;20057;-93
2022/12/10 08:36:46;;;;;;;41.08;23.05;;;;;;;;;;5034181;28;20503;-93
2022/12/10 08:39:16;;;;;;;42.60;23.45;;;;;;;;;;5033812;28;20057;-93
2022/12/10 08:41:44;;;;;;;39.33;22.42;;;;;;;;;;5032962;28;20045;-93
2022/12/10 08:44:13;;;;;;;39.15;21.55;;;;;;;;;;5033101;28;20064;-93
2022/12/10 08:46:40;;;;;;;41.22;21.40;;;;;;;;;;5034515;28;20068;-93
2022/12/10 08:49:08;;;;;;;39.42;20.90;;;;;;;;;;5034590;28;20053;-93
2022/12/10 08:51:35;;;;;;;38.60;20.38;;;;;;;;;;5032567;28;20049;-93
2022/12/10 08:54:02;;;;;;;55.00;23.73;;;;;;;;;;5034452;28;20562;-93
2022/12/10 08:56:30;;;;;;;41.92;21.17;;;;;;;;;;5034498;28;20050;-94
2022/12/10 08:58:57;;;;;;;39.28;19.65;;;;;;;;;;5035396;28;20046;-93
2022/12/10 09:01:24;;;;;;;38.15;20.92;;;;;;;;;;5035673;28;20088;-93
2022/12/10 09:03:52;;;;;;;39.67;20.67;;;;;;;;;;5035213;28;20056;-93
2022/12/10 09:06:20;;;;;;;34.25;19.90;;;;;;;;;;5033494;28;20502;-93
2022/12/10 09:08:47;;;;;;;37.40;20.75;;;;;;;;;;5038109;28;20076;-93
2022/12/10 09:11:16;;;;;;;39.55;19.55;;;;;;;;;;5033926;28;20132;-94
2022/12/10 09:13:43;;;;;;;35.00;19.17;;;;;;;;;;5033748;28;20057;-93
2022/12/10 09:16:10;;;;;;;36.00;20.58;;;;;;;;;;5036088;28;20494;-93
2022/12/10 09:18:38;;;;;;;36.30;19.65;;;;;;;;;;5033630;28;20290;-93
2022/12/10 09:21:09;;;;;;;35.92;20.88;;;;;;;;;;5032973;28;20129;-93
2022/12/10 09:23:36;;;;;;;43.85;22.92;;;;;;;;;;5033821;28;20057;-93
2022/12/10 09:26:07;;;;;;;59.72;33.55;;;;;;;;;;5033427;28;20519;-93
2022/12/10 09:28:35;;;;;;;37.38;20.58;;;;;;;;;;5032318;28;20057;-93
2022/12/10 09:31:03;;;;;;;46.30;26.20;;;;;;;;;;5032721;28;20057;-93
2022/12/10 09:33:38;;;;;;;46.28;25.52;;;;;;;;;;5032630;28;20072;-93
2022/12/10 09:36:07;;;;;;;43.00;26.55;;;;;;;;;;5031530;28;20137;-93
2022/12/10 09:38:34;;;;;;;48.70;26.38;;;;;;;;;;5031938;28;20128;-93
2022/12/10 09:41:03;;;;;;;41.90;22.65;;;;;;;;;;5033256;28;20046;-92
2022/12/10 09:43:53;;;;;;;41.33;21.98;;;;;;;;;;5032754;28;20051;-93
2022/12/10 09:46:40;;;;;;;36.90;20.95;;;;;;;;;;5032723;28;20081;-93
2022/12/10 09:49:10;;;;;;;40.00;20.33;;;;;;;;;;5032916;28;20576;-93
2022/12/10 09:51:38;;;;;;;42.05;21.88;;;;;;;;;;5032090;28;20088;-93
2022/12/10 09:54:15;;;;;;;39.63;20.98;;;;;;;;;;5034957;28;20059;-93
2022/12/10 09:56:43;;;;;;;37.75;20.15;;;;;;;;;;5036822;28;20054;-92
2022/12/10 09:59:19;;;;;;;37.35;19.83;;;;;;;;;;5035602;28;20497;-92
2022/12/10 10:01:48;;;;;;;38.72;20.80;;;;;;;;;;5036019;28;20045;-92
2022/12/10 10:04:15;;;;;;;35.58;20.33;;;;;;;;;;5035492;28;20128;-93
2022/12/10 10:06:43;;;;;;;36.90;19.80;;;;;;;;;;5035599;28;20076;-92
2022/12/10 10:09:13;;;;;;;39.85;19.95;;;;;;;;;;5036716;28;20054;-93
2022/12/10 10:11:40;;;;;;;39.33;21.08;;;;;;;;;;5037810;28;20096;-93
2022/12/10 10:14:18;;;;;;;39.38;20.33;;;;;;;;;;5035705;28;20120;-93
2022/12/10 10:16:50;;;;;;;37.47;20.85;;;;;;;;;;5035755;28;20045;-93
2022/12/10 10:19:24;;;;;;;41.08;21.17;;;;;;;;;;5036092;28;20049;-93
2022/12/10 10:21:52;;;;;;;38.85;19.98;;;;;;;;;;5035764;28;20465;-93
2022/12/10 10:24:21;;;;;;;38.25;19.90;;;;;;;;;;5036194;28;20144;-93
2022/12/10 10:26:49;;;;;;;37.17;20.80;;;;;;;;;;5035312;28;20049;-93
2022/12/10 10:29:18;;;;;;;39.28;20.60;;;;;;;;;;5035811;28;20049;-93
2022/12/10 10:31:46;;;;;;;36.72;20.95;;;;;;;;;;5036374;28;20054;-93
2022/12/10 10:34:16;;;;;;;42.90;21.92;;;;;;;;;;5036452;28;20080;-91
2022/12/10 10:36:43;;;;;;;39.35;21.92;;;;;;;;;;5035191;28;20042;-93
2022/12/10 10:39:11;;;;;;;41.90;21.35;;;;;;;;;;5036115;28;20144;-93
2022/12/10 10:41:40;;;;;;;41.92;22.05;;;;;;;;;;5035605;28;20132;-93
2022/12/10 10:44:14;;;;;;;45.05;21.88;;;;;;;;;;5035260;28;20092;-92
2022/12/10 10:46:42;;;;;;;40.90;20.65;;;;;;;;;;5034850;28;20414;-93
2022/12/10 10:49:22;;;;;;;37.63;20.75;;;;;;;;;;5035247;28;20078;-93
2022/12/10 10:51:50;;;;;;;43.90;22.60;;;;;;;;;;5036277;28;20061;-92
2022/12/10 10:54:35;;;;;;;44.97;22.15;;;;;;;;;;5035060;28;20084;-91
2022/12/10 10:57:04;;;;;;;35.55;19.85;;;;;;;;;;5034871;28;20052;-92
2022/12/10 10:59:36;;;;;;;34.80;19.23;;;;;;;;;;5034803;28;20049;-92
2022/12/10 11:02:21;;;;;;;34.20;18.75;;;;;;;;;;5034715;28;20379;-92
2022/12/10 11:04:52;;;;;;;33.88;18.90;;;;;;;;;;5034207;28;20481;-92
2022/12/10 11:07:26;;;;;;;36.40;20.75;;;;;;;;;;5034359;28;20049;-90
2022/12/10 11:09:55;;;;;;;40.38;22.67;;;;;;;;;;5034534;28;20064;-91
2022/12/10 11:12:27;;;;;;;34.53;19.92;;;;;;;;;;5034404;28;20409;-91
2022/12/10 11:14:55;;;;;;;34.75;19.33;;;;;;;;;;5034621;28;20413;-92
2022/12/10 11:17:26;;;;;;;31.40;17.40;;;;;;;;;;5034363;28;20053;-91
2022/12/10 11:19:56;;;;;;;31.33;19.15;;;;;;;;;;5034065;28;20060;-92
2022/12/10 11:22:30;;;;;;;29.25;17.67;;;;;;;;;;5034215;28;20052;-92
2022/12/10 11:24:58;;;;;;;45.20;26.65;;;;;;;;;;5033935;28;20060;-92
2022/12/10 11:27:45;;;;;;;42.13;22.85;;;;;;;;;;5034025;28;20050;-91
2022/12/10 11:30:23;;;;;;;36.42;21.10;;;;;;;;;;5034012;28;20045;-91
2022/12/10 11:32:56;;;;;;;32.90;19.63;;;;;;;;;;5034167;28;20140;-92
2022/12/10 11:35:24;;;;;;;32.28;18.80;;;;;;;;;;5034079;28;20140;-92
2022/12/10 11:38:03;;;;;;;36.17;21.13;;;;;;;;;;5033996;28;20060;-92
2022/12/10 11:40:46;;;;;;;42.78;24.75;;;;;;;;;;5033883;28;20136;-91
2022/12/10 11:43:18;;;;;;;46.15;22.35;;;;;;;;;;5033925;28;20041;-91
2022/12/10 11:45:53;;;;;;;34.70;21.40;;;;;;;;;;5033759;28;20476;-92
2022/12/10 11:48:29;;;;;;;30.70;18.77;;;;;;;;;;5033692;28;20045;-91
2022/12/10 11:51:09;;;;;;;30.92;18.27;;;;;;;;;;5033683;28;20057;-91
2022/12/10 11:53:55;;;;;;;33.40;18.30;;;;;;;;;;5033942;28;20041;-91
2022/12/10 11:56:29;;;;;;;31.73;18.45;;;;;;;;;;5034553;28;20059;-91
2022/12/10 11:59:02;;;;;;;28.23;17.30;;;;;;;;;;5033355;28;20055;-91
2022/12/10 12:01:43;;;;;;;31.63;18.85;;;;;;;;;;5034078;28;20049;-92
2022/12/10 12:04:19;;;;;;;31.58;19.52;;;;;;;;;;5033399;28;20140;-92
2022/12/10 12:07:02;;;;;;;49.38;30.02;;;;;;;;;;5034174;28;20050;-92
2022/12/10 12:09:48;;;;;;;47.07;29.50;;;;;;;;;;5033703;28;20512;-92
2022/12/10 12:12:27;;;;;;;39.90;23.33;;;;;;;;;;5033288;28;20132;-92
2022/12/10 12:15:00;;;;;;;37.75;20.75;;;;;;;;;;5032952;28;20128;-92
2022/12/10 12:17:31;;;;;;;44.55;28.92;;;;;;;;;;5033063;28;20053;-92
2022/12/10 12:20:04;;;;;;;35.13;20.50;;;;;;;;;;5032987;28;20045;-91
2022/12/10 12:22:35;;;;;;;40.13;23.80;;;;;;;;;;5033269;28;20561;-91
2022/12/10 12:25:08;;;;;;;32.00;18.63;;;;;;;;;;5033058;28;20049;-91
2022/12/10 12:27:42;;;;;;;33.67;17.58;;;;;;;;;;5033057;28;20136;-91
2022/12/10 12:30:18;;;;;;;36.13;20.27;;;;;;;;;;5033038;28;20045;-91
2022/12/10 12:32:45;;;;;;;40.45;22.90;;;;;;;;;;5033459;28;20128;-91
2022/12/10 12:35:17;;;;;;;38.03;21.83;;;;;;;;;;5032856;28;20049;-92
2022/12/10 12:37:47;;;;;;;33.90;19.38;;;;;;;;;;5032912;28;20049;-91
2022/12/10 12:40:28;;;;;;;34.80;19.15;;;;;;;;;;5032782;28;20425;-91
2022/12/10 12:42:55;;;;;;;34.80;18.90;;;;;;;;;;5033045;28;20450;-91
2022/12/10 12:45:28;;;;;;;39.05;21.63;;;;;;;;;;5032768;28;20045;-91
2022/12/10 12:47:56;;;;;;;;;;;;;;;;;;5033215;28;20045;-91
2022/12/10 12:50:27;;;;;;;29.20;17.60;;;;;;;;;;5033680;28;20326;-91
2022/12/10 12:52:56;;;;;;;31.63;18.88;;;;;;;;;;5033786;28;20048;-90
2022/12/10 12:55:24;;;;;;;30.70;18.67;;;;;;;;;;5033706;28;20049;-91
2022/12/10 12:57:55;;;;;;;39.63;24.88;;;;;;;;;;5032821;28;20084;-91
2022/12/10 13:00:23;;;;;;;40.58;27.35;;;;;;;;;;5032434;28;20060;-91
2022/12/10 13:02:58;;;;;;;34.58;20.77;;;;;;;;;;5032414;28;20049;-91
2022/12/10 13:05:30;;;;;;;35.33;19.88;;;;;;;;;;5032541;28;20053;-91
2022/12/10 13:08:25;;;;;;;35.03;20.10;;;;;;;;;;5032456;28;20049;-91
2022/12/10 13:11:00;;;;;;;48.67;26.17;;;;;;;;;;5032094;28;20057;-91
2022/12/10 13:13:30;;;;;;;56.88;28.70;;;;;;;;;;5032481;28;20053;-91
2022/12/10 13:16:17;;;;;;;53.90;27.95;;;;;;;;;;5032031;28;20446;-91
2022/12/10 13:18:44;;;;;;;47.80;26.05;;;;;;;;;;5032427;28;20478;-91
2022/12/10 13:21:31;;;;;;;32.53;20.02;;;;;;;;;;5033301;28;20068;-91
2022/12/10 13:24:09;;;;;;;31.30;17.60;;;;;;;;;;5032292;28;20138;-92
2022/12/10 13:26:36;;;;;;;35.53;21.50;;;;;;;;;;5032578;28;20046;-91
2022/12/10 13:29:24;;;;;;;34.10;19.20;;;;;;;;;;5036447;28;20057;-92
2022/12/10 13:32:02;;;;;;;52.03;29.60;;;;;;;;;;5037659;28;20081;-92
2022/12/10 13:34:34;;;;;;;33.75;20.73;;;;;;;;;;5036651;28;20057;-92
2022/12/10 13:37:01;;;;;;;32.47;22.02;;;;;;;;;;5036261;28;20492;-92
2022/12/10 13:39:42;;;;;;;28.02;16.60;;;;;;;;;;5036200;28;20071;-92
2022/12/10 13:45:03;;;;;;;104.38;60.78;;;;;;;;;;5037431;28;20046;-93
2022/12/10 13:47:33;;;;;;;59.78;32.35;;;;;;;;;;5036526;28;20065;-93
2022/12/10 13:50:02;;;;;;;32.33;19.50;;;;;;;;;;5037289;28;20130;-93
2022/12/10 13:52:33;;;;;;;36.38;21.60;;;;;;;;;;5036319;28;20099;-92
2022/12/10 13:55:01;;;;;;;28.67;16.98;;;;;;;;;;5035925;28;20051;-92
2022/12/10 13:57:38;;;;;;;31.30;19.75;;;;;;;;;;5035892;28;20049;-92
2022/12/10 14:00:13;;;;;;;35.90;18.33;;;;;;;;;;5035397;28;20063;-93
2022/12/10 14:02:53;;;;;;;26.42;17.13;;;;;;;;;;5036041;28;20064;-92
2022/12/10 14:05:21;;;;;;;28.00;17.50;;;;;;;;;;5035557;28;20053;-93
2022/12/10 14:07:50;;;;;;;26.80;16.33;;;;;;;;;;5039642;28;20045;-92
2022/12/10 14:10:19;;;;;;;28.83;17.45;;;;;;;;;;5036492;28;20057;-93
2022/12/10 14:12:46;;;;;;;29.55;17.05;;;;;;;;;;5038234;28;20410;-92
2022/12/10 14:15:21;;;;;;;26.90;16.80;;;;;;;;;;5037966;28;20518;-93
2022/12/10 14:17:49;;;;;;;27.45;15.43;;;;;;;;;;5037814;28;20050;-93
2022/12/10 14:20:19;;;;;;;25.08;15.73;;;;;;;;;;5036778;28;20131;-93
2022/12/10 14:22:47;;;;;;;24.30;14.38;;;;;;;;;;5037710;28;20055;-93
2022/12/10 14:25:17;;;;;;;27.20;15.77;;;;;;;;;;5040801;28;20049;-94
2022/12/10 14:27:50;;;;;;;24.38;14.57;;;;;;;;;;5045518;28;20049;-94
2022/12/10 14:30:22;;;;;;;23.58;14.85;;;;;;;;;;5045204;28;20053;-93
2022/12/10 14:32:50;;;;;;;28.30;16.40;;;;;;;;;;5036985;28;20140;-93
2022/12/10 14:35:22;;;;;;;27.95;16.02;;;;;;;;;;5020460;28;20454;-93
2022/12/10 14:37:53;;;;;;;26.35;15.40;;;;;;;;;;5035914;28;20052;-93
2022/12/10 14:40:25;;;;;;;23.50;14.70;;;;;;;;;;5035823;28;20473;-93
2022/12/10 14:42:55;;;;;;;25.80;14.93;;;;;;;;;;5036753;28;20060;-93
2022/12/10 14:45:27;;;;;;;25.23;15.10;;;;;;;;;;5036998;28;20061;-93